Time;durP1;ratioP1;P1;durP2;ratioP2;P2;SDS_P1;SDS_P2;PMS_P1;PMS_P2;Temp;Humidity;BMP_temperature;BMP_pressure;BME280_temperature;BME280_humidity;BME280_pressure;Samples;Min_cycle;Max_cycle;Signal;HPM_P1;HPM_P2
2021/06/23 00:01:33;;;;;;;8.98;5.92;;;;;;;18.25;72.03;101164.20;1568882;91;21277;-84
2021/06/23 00:04:00;;;;;;;10.78;5.00;;;;;;;18.28;72.12;101165.97;1568753;91;22605;-84
2021/06/23 00:06:27;;;;;;;9.40;4.95;;;;;;;18.31;72.11;101168.19;1568869;91;21010;-83
2021/06/23 00:08:53;;;;;;;13.50;5.70;;;;;;;18.34;72.05;101177.95;1568953;91;21617;-83
2021/06/23 00:11:20;;;;;;;12.00;4.87;;;;;;;18.36;72.07;101187.73;1568914;91;21152;-84
2021/06/23 00:13:50;;;;;;;14.90;5.05;;;;;;;18.39;71.88;101190.83;1568285;91;21734;-84
2021/06/23 00:16:16;;;;;;;12.58;4.97;;;;;;;18.37;71.79;101196.16;1626782;87;21719;-83
2021/06/23 00:18:43;;;;;;;10.25;6.33;;;;;;;18.40;71.87;101189.95;1623260;88;21113;-84
2021/06/23 00:21:10;;;;;;;11.43;4.75;;;;;;;18.41;71.81;101197.05;1623306;88;21070;-83
2021/06/23 00:23:38;;;;;;;11.75;4.92;;;;;;;18.42;71.60;101210.38;1623263;88;21614;-84
2021/06/23 00:26:05;;;;;;;10.58;4.42;;;;;;;18.42;71.67;101213.05;1623230;88;21632;-83
2021/06/23 00:28:32;;;;;;;13.15;4.87;;;;;;;18.42;71.62;101210.38;1623322;88;21895;-83
2021/06/23 00:30:58;;;;;;;9.30;4.42;;;;;;;18.46;71.70;101212.16;1631061;87;21084;-83
2021/06/23 00:33:30;;;;;;;11.63;4.72;;;;;;;18.51;71.61;101216.63;1637251;87;21022;-83
2021/06/23 00:35:56;;;;;;;8.80;4.03;;;;;;;18.52;71.33;101203.72;1636957;87;21133;-82
2021/06/23 00:38:23;;;;;;;18.98;4.92;;;;;;;18.50;71.32;101201.05;1637023;86;21045;-83
2021/06/23 00:40:50;;;;;;;15.00;4.97;;;;;;;18.48;71.30;101185.95;1637038;87;21768;-84
2021/06/23 00:43:16;;;;;;;12.70;4.53;;;;;;;18.46;71.32;101185.50;1636856;87;21086;-83
2021/06/23 00:45:44;;;;;;;12.07;5.10;;;;;;;18.44;71.26;101181.06;1636933;86;21108;-83
2021/06/23 00:48:16;;;;;;;13.18;4.47;;;;;;;18.38;71.12;101182.41;1636923;86;21152;-84
2021/06/23 00:50:43;;;;;;;11.45;4.22;;;;;;;18.31;71.09;101185.96;1637226;87;21100;-84
2021/06/23 00:53:10;;;;;;;11.00;4.40;;;;;;;18.25;71.14;101182.39;1636788;86;21765;-83
2021/06/23 00:55:43;;;;;;;13.00;4.30;;;;;;;18.21;71.16;101185.08;1637072;86;21064;-84
2021/06/23 00:58:13;;;;;;;16.27;4.70;;;;;;;18.17;71.18;101191.27;1636382;87;21176;-84
2021/06/23 01:00:39;;;;;;;10.28;4.35;;;;;;;18.11;71.23;101195.27;1636883;86;21100;-83
2021/06/23 01:03:09;;;;;;;14.65;5.22;;;;;;;18.06;71.34;101198.81;1636561;87;21097;-82
2021/06/23 01:05:36;;;;;;;8.83;4.25;;;;;;;18.09;71.42;101201.92;1616884;87;21788;-83
2021/06/23 01:08:04;;;;;;;11.95;4.45;;;;;;;18.11;71.51;101200.14;1636772;87;21556;-83
2021/06/23 01:10:32;;;;;;;6.50;3.60;;;;;;;18.13;71.45;101197.48;1616631;87;21081;-83
2021/06/23 01:13:18;;;;;;;8.70;4.45;;;;;;;18.15;71.56;101203.70;1636752;87;21113;-83
2021/06/23 01:15:47;;;;;;;10.60;4.35;;;;;;;18.14;71.37;101196.16;1636698;86;21104;-83
2021/06/23 01:18:15;;;;;;;11.38;4.08;;;;;;;18.15;71.34;101195.28;1637063;87;21828;-83
2021/06/23 01:20:45;;;;;;;13.48;4.40;;;;;;;18.19;71.40;101190.85;1636831;87;21097;-83
2021/06/23 01:23:13;;;;;;;19.02;5.22;;;;;;;18.22;71.31;101185.50;1637193;86;21062;-84
2021/06/23 01:25:40;;;;;;;12.40;4.75;;;;;;;18.20;71.19;101179.29;1637120;87;21576;-85
2021/06/23 01:28:07;;;;;;;9.65;4.22;;;;;;;18.18;71.18;101185.06;1637194;87;21619;-85
2021/06/23 01:30:34;;;;;;;9.98;4.22;;;;;;;18.14;71.08;101185.95;1636442;86;21767;-85
2021/06/23 01:33:08;;;;;;;13.05;4.37;;;;;;;18.14;71.30;101188.16;1634297;87;21577;-85
2021/06/23 01:35:35;;;;;;;11.15;4.22;;;;;;;18.13;71.16;101195.73;1611435;88;21522;-84
2021/06/23 01:38:04;;;;;;;12.68;4.47;;;;;;;18.11;71.21;101200.14;1630817;88;21560;-84
2021/06/23 01:40:31;;;;;;;11.55;4.67;;;;;;;18.11;71.21;101201.47;1630366;86;21083;-84
2021/06/23 01:42:58;;;;;;;13.62;4.22;;;;;;;18.12;71.25;101198.39;1630942;88;22570;-84
2021/06/23 01:45:26;;;;;;;10.15;4.37;;;;;;;18.14;71.24;101205.94;1630865;88;21021;-84
2021/06/23 01:47:53;;;;;;;8.15;3.70;;;;;;;18.13;71.20;101190.41;1631156;86;21099;-85
2021/06/23 01:50:23;;;;;;;14.73;4.83;;;;;;;18.14;71.22;101195.28;1630693;86;21177;-84
2021/06/23 01:53:01;;;;;;;12.40;4.15;;;;;;;18.14;71.16;101191.28;1630816;88;21090;-85
2021/06/23 01:55:29;;;;;;;10.58;4.20;;;;;;;18.15;71.22;101191.29;1630486;86;21076;-83
2021/06/23 01:58:00;;;;;;;10.75;4.60;;;;;;;18.16;71.28;101192.17;1630787;86;21123;-84
2021/06/23 02:00:42;;;;;;;7.28;4.67;;;;;;;18.18;71.20;101193.05;1608990;88;21636;-84
2021/06/23 02:03:14;;;;;;;11.85;4.53;;;;;;;18.16;71.05;101182.84;1630855;86;21802;-84
2021/06/23 02:05:48;;;;;;;16.25;4.22;;;;;;;18.14;71.07;101197.48;1630581;86;21663;-84
2021/06/23 02:08:45;;;;;;;13.70;4.42;;;;;;;18.12;71.06;101199.72;1624503;86;21806;-84
2021/06/23 02:11:45;;;;;;;11.22;4.33;;;;;;;18.11;71.06;101205.92;1625831;88;21660;-84
2021/06/23 02:14:19;;;;;;;8.43;3.95;;;;;;;18.13;71.11;101219.70;1612801;89;21076;-84
2021/06/23 02:16:46;;;;;;;7.72;3.67;;;;;;;18.09;71.04;101227.67;1612519;89;21172;-82
2021/06/23 02:19:13;;;;;;;9.28;4.08;;;;;;;18.10;71.19;101234.80;1612769;88;21128;-84
2021/06/23 02:21:41;;;;;;;13.15;3.72;;;;;;;18.13;71.26;101236.11;1612774;89;21770;-84
2021/06/23 02:24:10;;;;;;;9.10;3.87;;;;;;;18.17;71.21;101237.47;1612554;88;21033;-83
2021/06/23 02:26:36;;;;;;;13.28;3.62;;;;;;;18.20;71.18;101248.11;1612419;88;21088;-82
2021/06/23 02:29:04;;;;;;;8.03;3.90;;;;;;;18.25;71.19;101265.45;1612622;89;21073;-83
2021/06/23 02:31:31;;;;;;;9.65;4.33;;;;;;;18.29;71.15;101266.35;1614575;88;21164;-84
2021/06/23 02:33:58;;;;;;;13.38;4.78;;;;;;;18.33;71.13;101261.02;1616550;88;22490;-83
2021/06/23 02:36:34;;;;;;;11.48;4.35;;;;;;;18.36;71.10;101263.70;1616442;88;21084;-83
2021/06/23 02:39:05;;;;;;;7.08;3.30;;;;;;;18.40;70.88;101264.59;1616454;88;21589;-82
2021/06/23 02:41:32;;;;;;;10.03;3.52;;;;;;;18.40;70.64;101269.47;1616458;88;21170;-82
2021/06/23 02:43:59;;;;;;;13.30;3.98;;;;;;;18.42;70.57;101267.69;1616744;88;21103;-82
2021/06/23 02:46:26;;;;;;;8.60;3.42;;;;;;;18.43;70.49;101268.15;1577381;89;21885;-82
2021/06/23 02:48:52;;;;;;;10.38;4.22;;;;;;;18.45;70.52;101269.48;1613464;88;21094;-82
2021/06/23 02:51:25;;;;;;;8.53;3.92;;;;;;;18.50;70.49;101267.69;1624089;87;21109;-84
2021/06/23 02:53:54;;;;;;;8.95;3.40;;;;;;;18.50;70.26;101266.81;1623189;88;21194;-83
2021/06/23 02:56:21;;;;;;;14.87;3.90;;;;;;;18.47;70.14;101270.38;1625485;87;21571;-83
2021/06/23 02:58:49;;;;;;;11.55;3.72;;;;;;;18.45;70.14;101276.16;1625244;88;22969;-84
2021/06/23 03:01:16;;;;;;;10.10;3.72;;;;;;;18.40;70.01;101278.80;1624297;87;21145;-83
2021/06/23 03:03:43;;;;;;;9.68;3.60;;;;;;;18.35;70.06;101285.00;1624937;88;21550;-83
2021/06/23 03:06:10;;;;;;;7.87;3.47;;;;;;;18.37;70.09;101292.56;1625074;88;21023;-83
2021/06/23 03:08:37;;;;;;;10.90;3.55;;;;;;;18.40;70.14;101294.78;1626749;87;21093;-83
2021/06/23 03:11:05;;;;;;;10.48;4.10;;;;;;;18.43;70.12;101292.56;1624635;88;21836;-83
2021/06/23 03:13:35;;;;;;;9.85;3.58;;;;;;;18.48;70.19;101296.58;1625386;87;21086;-83
2021/06/23 03:16:02;;;;;;;10.98;3.60;;;;;;;18.51;70.12;101294.81;1625098;87;21644;-83
2021/06/23 03:18:39;;;;;;;10.35;3.27;;;;;;;18.55;70.03;101300.58;1624953;88;21144;-83
2021/06/23 03:21:08;;;;;;;6.75;3.25;;;;;;;18.61;69.82;101297.03;1625319;87;21094;-83
2021/06/23 03:23:35;;;;;;;9.68;3.58;;;;;;;18.63;69.55;101303.25;1625421;87;21787;-83
2021/06/23 03:26:02;;;;;;;10.18;3.37;;;;;;;18.59;69.36;101305.48;1624871;87;21174;-83
2021/06/23 03:28:28;;;;;;;13.65;3.33;;;;;;;18.59;69.31;101317.02;1625149;88;21082;-83
2021/06/23 03:31:06;;;;;;;10.23;3.62;;;;;;;18.61;69.41;101323.70;1623516;88;21670;-83
2021/06/23 03:33:35;;;;;;;9.70;3.20;;;;;;;18.60;69.15;101325.48;1612113;88;21097;-83
2021/06/23 03:36:05;;;;;;;14.33;4.28;;;;;;;18.61;69.18;101330.36;1606756;87;50904;-83
2021/06/23 03:38:33;;;;;;;10.53;2.75;;;;;;;18.67;69.30;101327.69;1596167;88;21155;-84
2021/06/23 03:40:59;;;;;;;6.62;2.98;;;;;;;18.68;69.06;101331.27;1607906;88;21065;-85
2021/06/23 03:43:37;;;;;;;9.95;3.17;;;;;;;18.70;69.03;101337.04;1608373;87;21043;-85
2021/06/23 03:46:04;;;;;;;7.37;3.15;;;;;;;18.73;69.05;101331.72;1626164;88;21502;-85
2021/06/23 03:48:32;;;;;;;9.08;2.95;;;;;;;18.73;68.96;101332.14;1612544;88;21784;-83
2021/06/23 03:51:01;;;;;;;10.55;3.60;;;;;;;18.72;68.94;101331.26;1612393;89;21095;-83
2021/06/23 03:53:29;;;;;;;9.43;3.80;;;;;;;18.70;68.97;101330.83;1612297;89;22347;-83
2021/06/23 03:55:56;;;;;;;10.23;3.20;;;;;;;18.65;68.76;101332.14;1612393;89;21660;-83
2021/06/23 03:58:25;;;;;;;10.65;3.12;;;;;;;18.62;68.96;101341.03;1612376;88;21515;-83
2021/06/23 04:00:51;;;;;;;7.47;2.95;;;;;;;18.65;69.06;101339.68;1612445;89;21894;-83
2021/06/23 04:03:18;;;;;;;8.50;3.62;;;;;;;18.71;69.01;101340.59;1612250;89;21175;-82
2021/06/23 04:05:54;;;;;;;9.83;2.98;;;;;;;18.71;68.90;101336.59;1612615;89;21088;-83
2021/06/23 04:08:24;;;;;;;9.93;3.52;;;;;;;18.72;68.97;101347.27;1611824;89;21051;-82
2021/06/23 04:10:51;;;;;;;13.70;4.47;;;;;;;18.79;69.13;101351.72;1612127;89;21627;-84
2021/06/23 04:13:17;;;;;;;10.75;4.08;;;;;;;18.84;69.09;101352.66;1612185;89;21770;-84
2021/06/23 04:15:44;;;;;;;12.95;3.85;;;;;;;18.90;69.11;101347.77;1612220;89;21076;-83
2021/06/23 04:18:11;;;;;;;19.12;4.08;;;;;;;18.93;69.22;101355.74;1612118;89;21040;-84
2021/06/23 04:20:37;;;;;;;10.90;3.75;;;;;;;19.00;69.47;101360.65;1591772;89;21064;-84
2021/06/23 04:23:04;;;;;;;12.47;3.55;;;;;;;19.06;69.50;101361.09;1612034;89;21151;-85
2021/06/23 04:25:31;;;;;;;7.95;3.45;;;;;;;19.09;69.47;101359.32;1612470;89;21772;-85
2021/06/23 04:27:57;;;;;;;7.35;3.45;;;;;;;19.14;69.65;101369.52;1602501;88;21090;-88
2021/06/23 04:34:00;;;;;;;10.82;3.10;;;;;;;19.19;69.67;101386.88;1598661;89;21694;-82
2021/06/23 04:36:33;;;;;;;7.92;3.37;;;;;;;19.27;69.87;101380.20;1607788;89;21126;-84
2021/06/23 04:39:04;;;;;;;8.90;3.35;;;;;;;19.37;69.77;101378.86;1607524;89;22521;-82
2021/06/23 04:41:31;;;;;;;6.78;2.72;;;;;;;19.50;69.41;101375.73;1607745;89;21098;-82
2021/06/23 04:44:01;;;;;;;6.35;2.77;;;;;;;19.62;69.14;101374.35;1607215;89;21110;-82
2021/06/23 04:46:32;;;;;;;11.50;3.25;;;;;;;19.74;68.90;101376.13;1595183;89;21069;-87
2021/06/23 04:48:56;;;;;;;8.43;3.40;;;;;;;19.86;68.80;101380.57;1603735;87;21186;-80
2021/06/23 04:51:23;;;;;;;7.70;3.00;;;;;;;20.05;68.72;101375.16;1601427;89;22708;-81
2021/06/23 04:53:49;;;;;;;9.68;3.17;;;;;;;20.26;68.50;101373.70;1600822;89;21182;-81
2021/06/23 04:56:16;;;;;;;13.40;2.95;;;;;;;20.62;68.62;101361.05;1601099;89;21604;-82
2021/06/23 04:58:43;;;;;;;8.50;2.62;;;;;;;21.95;70.56;101360.70;1601153;89;21114;-82
2021/06/23 05:01:09;;;;;;;13.10;2.58;;;;;;;23.55;67.29;101354.21;1601077;89;21145;-81
2021/06/23 05:03:36;;;;;;;9.00;2.77;;;;;;;24.41;65.16;101348.39;1601144;89;22568;-81
2021/06/23 05:06:03;;;;;;;9.45;3.12;;;;;;;24.36;62.89;101335.53;1601064;89;21103;-85
2021/06/23 05:08:34;;;;;;;11.40;3.00;;;;;;;24.22;61.95;101352.44;1601154;89;21125;-81
2021/06/23 05:10:59;;;;;;;8.98;2.87;;;;;;;24.01;61.34;101351.98;1610782;87;21115;-81
2021/06/23 05:13:25;;;;;;;8.65;2.83;;;;;;;23.72;60.94;101349.84;1662927;84;21084;-82
2021/06/23 05:15:54;;;;;;;8.20;2.42;;;;;;;23.55;60.69;101353.33;1680292;84;21784;-82
2021/06/23 05:18:20;;;;;;;5.80;2.37;;;;;;;23.53;60.65;101356.05;1679796;84;21610;-82
2021/06/23 05:20:47;;;;;;;6.15;2.37;;;;;;;23.62;60.17;101360.37;1679944;84;21069;-81
2021/06/23 05:23:14;;;;;;;8.65;2.52;;;;;;;23.95;59.93;101370.94;1679947;84;21212;-83
2021/06/23 05:25:40;;;;;;;5.80;2.90;;;;;;;24.19;59.14;101369.97;1679984;84;21092;-81
2021/06/23 05:28:07;;;;;;;7.20;2.33;;;;;;;25.02;59.61;101369.43;1679641;84;21777;-81
2021/06/23 05:30:34;;;;;;;7.87;2.17;;;;;;;26.10;57.40;101373.27;1679922;84;21140;-81
2021/06/23 05:33:00;;;;;;;6.08;2.58;;;;;;;26.16;55.81;101373.95;1680541;84;21100;-81
2021/06/23 05:35:27;;;;;;;7.45;2.37;;;;;;;26.55;55.53;101374.12;1680283;84;21524;-81
2021/06/23 05:37:54;;;;;;;7.15;2.05;;;;;;;26.45;54.24;101378.06;1680464;84;21073;-81
2021/06/23 05:40:21;;;;;;;8.58;2.42;;;;;;;26.11;53.36;101382.67;1679835;85;21758;-81
2021/06/23 05:42:47;;;;;;;6.72;2.15;;;;;;;25.71;53.42;101383.77;1680537;84;21080;-81
2021/06/23 05:45:16;;;;;;;8.90;5.70;;;;;;;25.41;53.42;101400.31;1680418;84;21092;-81
2021/06/23 05:47:43;;;;;;;10.05;3.37;;;;;;;25.20;53.07;101403.08;1680553;84;21189;-81
2021/06/23 05:50:10;;;;;;;5.80;2.67;;;;;;;24.96;53.38;101413.56;1680507;85;21057;-81
2021/06/23 05:52:37;;;;;;;7.85;2.33;;;;;;;24.93;53.57;101410.93;1680576;84;21756;-81
2021/06/23 05:55:05;;;;;;;6.22;2.25;;;;;;;24.91;53.61;101420.86;1680190;85;21562;-81
2021/06/23 05:57:32;;;;;;;7.85;2.15;;;;;;;24.87;53.33;101418.25;1680468;84;21068;-81
2021/06/23 05:59:59;;;;;;;8.68;2.15;;;;;;;24.78;53.33;101422.08;1680249;85;22274;-81
2021/06/23 06:02:25;;;;;;;9.03;2.85;;;;;;;24.77;53.34;101422.98;1680503;84;21503;-81
2021/06/23 06:04:52;;;;;;;7.42;2.42;;;;;;;24.78;53.06;101424.30;1680528;84;21753;-81
2021/06/23 06:07:22;;;;;;;7.22;2.65;;;;;;;24.79;52.89;101412.59;1680284;85;21072;-81
2021/06/23 06:09:49;;;;;;;6.17;2.58;;;;;;;24.77;52.84;101413.55;1680411;85;21112;-81
2021/06/23 06:12:15;;;;;;;10.10;2.70;;;;;;;24.79;52.69;101417.97;1680468;85;21068;-81
2021/06/23 06:14:44;;;;;;;7.70;2.20;;;;;;;24.85;52.63;101427.71;1680507;84;21540;-81
2021/06/23 06:17:11;;;;;;;8.70;2.15;;;;;;;24.85;52.52;101433.09;1680648;84;21836;-81
2021/06/23 06:19:37;;;;;;;9.65;2.72;;;;;;;24.95;52.52;101444.09;1680446;84;21072;-81
2021/06/23 06:22:04;;;;;;;6.67;2.30;;;;;;;24.99;52.16;101443.56;1680362;85;21613;-81
2021/06/23 06:24:31;;;;;;;10.88;3.77;;;;;;;25.04;52.15;101448.39;1680486;85;21069;-81
2021/06/23 06:26:58;;;;;;;6.03;2.33;;;;;;;25.07;51.97;101444.72;1680498;85;21033;-81
2021/06/23 06:29:24;;;;;;;10.08;2.50;;;;;;;25.06;51.75;101451.02;1680750;84;22369;-81
2021/06/23 06:31:51;;;;;;;11.35;2.67;;;;;;;25.03;51.67;101451.52;1680453;84;21045;-81
2021/06/23 06:34:18;;;;;;;10.13;3.15;;;;;;;25.06;51.49;101456.41;1677451;84;21088;-81
2021/06/23 06:36:44;;;;;;;6.75;2.35;;;;;;;25.06;51.48;101460.44;1675769;85;21227;-81
2021/06/23 06:39:11;;;;;;;5.67;2.08;;;;;;;25.10;51.43;101471.59;1676135;85;21087;-81
2021/06/23 06:41:38;;;;;;;5.28;2.10;;;;;;;25.07;51.30;101473.00;1676000;84;21757;-81
2021/06/23 06:44:05;;;;;;;9.58;2.47;;;;;;;24.99;51.12;101469.15;1675920;85;21079;-81
2021/06/23 06:46:31;;;;;;;11.40;2.95;;;;;;;24.76;50.58;101478.64;1676074;85;21398;-81
2021/06/23 06:48:58;;;;;;;8.00;1.95;;;;;;;24.52;50.76;101471.11;1676012;84;21067;-81
2021/06/23 06:51:25;;;;;;;5.28;2.20;;;;;;;24.32;50.92;101469.67;1676056;85;21028;-81
2021/06/23 06:53:52;;;;;;;5.97;2.37;;;;;;;24.21;50.77;101467.23;1675910;85;21253;-81
2021/06/23 06:56:18;;;;;;;10.82;3.67;;;;;;;24.12;51.02;101471.88;1675729;84;21083;-81
2021/06/23 06:58:45;;;;;;;5.65;1.87;;;;;;;24.04;50.80;101478.76;1676009;85;21061;-81
2021/06/23 07:01:12;;;;;;;6.62;2.40;;;;;;;23.94;50.94;101477.17;1675969;85;21072;-81
2021/06/23 07:03:39;;;;;;;9.35;2.47;;;;;;;23.90;50.91;101471.44;1676065;85;21589;-81
2021/06/23 07:06:05;;;;;;;12.88;3.00;;;;;;;23.81;51.01;101472.02;1675991;85;22493;-81
2021/06/23 07:08:32;;;;;;;9.15;2.40;;;;;;;23.77;51.21;101470.73;1675980;85;21084;-81
2021/06/23 07:10:59;;;;;;;18.15;3.20;;;;;;;23.75;51.21;101480.63;1676118;85;21166;-81
2021/06/23 07:13:26;;;;;;;11.88;2.70;;;;;;;23.77;51.22;101485.52;1676243;84;21009;-81
2021/06/23 07:15:52;;;;;;;7.15;2.52;;;;;;;23.80;51.20;101482.79;1675870;85;21061;-81
2021/06/23 07:18:19;;;;;;;9.00;2.33;;;;;;;23.78;51.06;101477.87;1675817;85;21156;-81
2021/06/23 07:20:46;;;;;;;5.45;2.30;;;;;;;23.64;50.70;101483.04;1675789;85;21028;-81
2021/06/23 07:23:12;;;;;;;7.25;3.02;;;;;;;23.57;51.00;101489.89;1675972;85;21565;-81
2021/06/23 07:25:39;;;;;;;4.42;2.33;;;;;;;23.53;50.95;101486.84;1676042;85;21100;-81
2021/06/23 07:28:08;;;;;;;6.67;2.05;;;;;;;23.49;50.92;101490.03;1675928;85;21627;-81
2021/06/23 07:30:35;;;;;;;11.48;2.77;;;;;;;23.49;51.18;101492.25;1675890;85;22634;-81
2021/06/23 07:33:07;;;;;;;6.72;2.87;;;;;;;23.58;51.26;101492.56;1675745;85;21056;-81
2021/06/23 07:38:15;;;;;;;6.67;2.58;;;;;;;23.70;51.30;101472.64;1675571;85;21660;-81
2021/06/23 07:43:11;;;;;;;17.10;3.55;;;;;;;23.97;51.03;101492.80;1675811;85;22532;-81
2021/06/23 07:45:42;;;;;;;5.22;2.58;;;;;;;24.04;50.79;101502.53;1675782;85;21115;-81
2021/06/23 07:48:07;;;;;;;6.17;2.27;;;;;;;24.05;50.28;101500.72;1675609;84;21111;-81
2021/06/23 07:50:43;;;;;;;8.65;1.92;;;;;;;24.07;50.10;101513.67;1675848;84;21103;-81
2021/06/23 07:53:16;;;;;;;9.45;2.80;;;;;;;24.05;50.15;101508.31;1674958;85;21080;-81
2021/06/23 07:56:06;;;;;;;5.42;2.05;;;;;;;24.20;50.26;101511.64;1674389;84;22621;-81
2021/06/23 08:11:41;;;;;;;4.53;2.65;;;;;;;24.75;49.31;101501.55;1675936;85;21048;-81
2021/06/23 08:14:08;;;;;;;5.83;2.77;;;;;;;24.92;49.04;101511.95;1675961;85;21091;-82
2021/06/23 08:16:37;;;;;;;7.20;2.20;;;;;;;25.05;48.90;101511.22;1679258;85;21076;-82
2021/06/23 08:19:04;;;;;;;4.70;2.45;;;;;;;25.21;48.44;101500.52;1676142;85;21139;-81
2021/06/23 08:21:31;;;;;;;6.85;2.37;;;;;;;25.28;48.62;101498.56;1675946;84;21856;-81
2021/06/23 08:23:58;;;;;;;6.33;1.92;;;;;;;25.43;48.54;101506.27;1675979;85;21091;-81
2021/06/23 08:26:25;;;;;;;7.37;2.65;;;;;;;25.53;48.13;101506.95;1675955;85;21081;-82
2021/06/23 08:28:51;;;;;;;7.60;2.30;;;;;;;25.58;47.80;101500.52;1675992;85;21668;-82
2021/06/23 08:31:18;;;;;;;5.45;1.90;;;;;;;25.58;47.75;101494.22;1676194;85;21071;-81
2021/06/23 08:33:45;;;;;;;6.25;1.92;;;;;;;25.61;47.94;101498.19;1676820;85;21828;-82
2021/06/23 08:36:12;;;;;;;6.72;2.08;;;;;;;25.67;47.81;101502.54;1680639;85;21088;-82
2021/06/23 08:38:42;;;;;;;9.28;2.17;;;;;;;25.66;47.64;101503.45;1680801;85;21083;-81
2021/06/23 08:41:08;;;;;;;8.03;2.40;;;;;;;25.55;47.53;101498.36;1680182;85;21072;-82
2021/06/23 08:43:35;;;;;;;13.38;3.20;;;;;;;25.48;47.85;101498.96;1680490;84;21614;-81
2021/06/23 08:46:03;;;;;;;6.90;2.20;;;;;;;25.54;47.98;101501.97;1680506;85;22641;-82
2021/06/23 08:48:31;;;;;;;11.05;2.70;;;;;;;25.60;47.92;101504.05;1680625;84;20997;-82
2021/06/23 08:51:06;;;;;;;5.70;2.17;;;;;;;25.74;47.72;101502.81;1680812;84;21602;-82
2021/06/23 08:53:34;;;;;;;8.43;3.10;;;;;;;25.74;47.64;101508.20;1680627;85;21084;-82
2021/06/23 08:56:02;;;;;;;6.42;2.62;;;;;;;25.80;47.82;101514.77;1680393;85;21073;-82
2021/06/23 08:58:29;;;;;;;5.37;2.25;;;;;;;25.87;47.98;101512.34;1680710;84;22593;-82
2021/06/23 09:00:56;;;;;;;8.88;4.00;;;;;;;26.04;48.16;101517.78;1680497;85;21081;-82
2021/06/23 09:03:23;;;;;;;8.93;2.70;;;;;;;26.24;47.74;101518.13;1680663;84;22485;-81
2021/06/23 09:05:54;;;;;;;8.23;2.50;;;;;;;26.36;47.65;101523.62;1680956;84;21084;-82
2021/06/23 09:08:36;;;;;;;9.78;2.85;;;;;;;26.49;47.58;101526.86;1680706;85;21524;-82
2021/06/23 09:11:14;;;;;;;5.42;2.12;;;;;;;26.63;47.51;101534.11;1680550;85;21758;-81
2021/06/23 09:13:41;;;;;;;4.87;1.98;;;;;;;26.75;47.34;101528.83;1680520;84;21103;-82
2021/06/23 09:16:08;;;;;;;6.67;3.25;;;;;;;26.83;46.87;101524.06;1680596;84;21076;-82
2021/06/23 09:18:36;;;;;;;7.47;3.00;;;;;;;26.69;46.35;101519.53;1639035;85;21081;-82
2021/06/23 09:21:17;;;;;;;8.15;2.77;;;;;;;26.47;46.15;101524.67;1680589;84;21064;-81
2021/06/23 09:23:47;;;;;;;7.28;2.47;;;;;;;26.20;46.18;101523.16;1680642;84;21768;-82
2021/06/23 09:26:37;;;;;;;8.13;2.50;;;;;;;26.07;46.21;101521.29;1684444;85;21088;-82
2021/06/23 09:29:16;;;;;;;6.25;2.10;;;;;;;25.87;46.29;101523.60;1661441;85;21144;-81
2021/06/23 09:32:04;;;;;;;6.53;2.00;;;;;;;25.77;46.59;101531.02;1680553;84;21749;-81
2021/06/23 09:34:46;;;;;;;10.53;2.55;;;;;;;25.78;47.05;101520.20;1678441;84;21130;-81
2021/06/23 09:37:34;;;;;;;5.50;2.00;;;;;;;25.89;47.45;101519.05;1674522;84;21783;-81
2021/06/23 09:40:15;;;;;;;5.75;2.15;;;;;;;25.93;47.10;101520.30;1676159;85;21088;-81
2021/06/23 09:42:55;;;;;;;5.55;2.00;;;;;;;25.93;47.06;101522.11;1655798;85;21080;-81
2021/06/23 09:45:21;;;;;;;7.12;2.65;;;;;;;25.96;47.01;101521.57;1675998;85;21187;-81
2021/06/23 09:47:49;;;;;;;9.10;2.27;;;;;;;26.02;47.18;101515.13;1676055;85;21127;-81
2021/06/23 09:50:24;;;;;;;6.97;2.87;;;;;;;26.09;47.08;101518.52;1676091;85;21752;-81
2021/06/23 09:53:02;;;;;;;5.58;1.80;;;;;;;26.10;47.22;101516.27;1676023;84;21518;-81
2021/06/23 09:55:38;;;;;;;8.00;2.15;;;;;;;26.16;47.23;101521.00;1675933;85;21032;-81
2021/06/23 09:58:17;;;;;;;7.03;2.55;;;;;;;26.14;47.07;101509.84;1673000;85;21215;-81
2021/06/23 10:01:03;;;;;;;5.50;2.58;;;;;;;26.17;46.94;101513.81;1676402;84;21107;-81
2021/06/23 10:03:34;;;;;;;4.65;2.00;;;;;;;26.12;46.59;101511.70;1676109;85;22680;-81
2021/06/23 10:06:25;;;;;;;10.53;2.10;;;;;;;26.07;46.66;101518.59;1676294;85;21151;-81
2021/06/23 10:08:52;;;;;;;6.55;2.50;;;;;;;26.09;46.55;101521.22;1676249;85;21694;-81
2021/06/23 10:11:30;;;;;;;5.47;1.87;;;;;;;26.06;46.20;101523.55;1675905;85;21550;-81
2021/06/23 10:13:56;;;;;;;4.17;2.10;;;;;;;26.03;45.96;101533.06;1676082;85;21091;-81
2021/06/23 10:16:25;;;;;;;8.95;2.00;;;;;;;25.93;45.77;101525.69;1676061;85;21748;-82
2021/06/23 10:18:54;;;;;;;14.47;2.65;;;;;;;25.89;45.91;101528.48;1675971;85;21080;-81
2021/06/23 10:21:22;;;;;;;4.45;1.85;;;;;;;25.87;46.19;101528.52;1675910;85;21107;-81
2021/06/23 10:23:49;;;;;;;5.15;1.95;;;;;;;25.94;46.11;101523.43;1676092;85;21119;-81
2021/06/23 10:26:18;;;;;;;7.92;2.17;;;;;;;26.02;45.93;101522.34;1675962;84;21764;-81
2021/06/23 10:28:48;;;;;;;3.92;1.90;;;;;;;26.08;45.86;101523.05;1676215;85;22648;-81
2021/06/23 10:31:16;;;;;;;6.95;2.35;;;;;;;26.16;45.74;101522.83;1675897;85;21664;-81
2021/06/23 10:33:43;;;;;;;5.83;2.27;;;;;;;26.21;45.85;101525.41;1676012;84;21076;-81
2021/06/23 10:36:09;;;;;;;6.45;2.20;;;;;;;26.27;45.81;101518.02;1679547;85;21057;-81
2021/06/23 10:38:36;;;;;;;4.92;1.65;;;;;;;26.33;46.16;101518.30;1680447;84;21115;-81
2021/06/23 10:41:04;;;;;;;9.83;2.33;;;;;;;26.43;45.78;101526.58;1680241;85;21815;-81
2021/06/23 10:43:31;;;;;;;10.30;2.35;;;;;;;26.42;45.11;101530.19;1680294;84;21140;-81
2021/06/23 10:45:58;;;;;;;10.03;2.85;;;;;;;26.38;44.89;101532.56;1680591;85;21072;-82
2021/06/23 10:48:25;;;;;;;14.93;3.58;;;;;;;26.35;44.83;101524.09;1680545;84;21334;-81
2021/06/23 10:50:52;;;;;;;5.55;2.05;;;;;;;26.35;44.96;101520.05;1680571;85;21426;-81
2021/06/23 10:53:32;;;;;;;5.10;2.25;;;;;;;26.42;45.21;101522.56;1661013;85;21830;-81
2021/06/23 10:56:02;;;;;;;5.03;1.75;;;;;;;26.47;45.14;101520.63;1680202;84;21626;-81
2021/06/23 10:58:33;;;;;;;6.12;1.60;;;;;;;26.54;45.07;101519.05;1680455;84;21021;-81
2021/06/23 11:01:13;;;;;;;4.05;2.10;;;;;;;26.60;44.91;101515.76;1680286;85;21664;-81
2021/06/23 11:04:03;;;;;;;10.45;2.30;;;;;;;26.64;44.88;101517.46;1679274;84;21017;-81
2021/06/23 11:06:45;;;;;;;14.98;2.72;;;;;;;26.67;44.87;101517.34;1679106;84;22421;-81
2021/06/23 11:09:29;;;;;;;4.58;1.80;;;;;;;26.66;44.71;101518.30;1680229;84;22349;-81
2021/06/23 11:11:56;;;;;;;11.88;3.25;;;;;;;26.70;44.77;101524.02;1680502;84;21555;-81
2021/06/23 11:14:23;;;;;;;8.90;2.50;;;;;;;26.72;45.26;101516.75;1680231;84;21493;-82
2021/06/23 11:16:50;;;;;;;9.10;3.47;;;;;;;26.62;45.76;101524.73;1680353;85;21060;-81
2021/06/23 11:19:17;;;;;;;10.80;3.67;;;;;;;26.48;45.86;101533.17;1680278;85;21779;-81
2021/06/23 11:21:45;;;;;;;8.95;3.20;;;;;;;26.35;46.30;101524.54;1680181;85;21112;-82
2021/06/23 11:24:17;;;;;;;5.67;3.08;;;;;;;26.33;46.57;101531.36;1680319;84;21136;-81
2021/06/23 11:26:50;;;;;;;6.62;3.10;;;;;;;26.28;46.60;101527.02;1683374;85;27687;-80
2021/06/23 11:29:21;;;;;;;8.53;3.20;;;;;;;26.16;46.76;101526.40;1680219;85;21241;-81
2021/06/23 11:31:54;;;;;;;11.73;4.12;;;;;;;26.24;47.12;101527.56;1680341;85;21843;-80
2021/06/23 11:34:40;;;;;;;;;;;;;;;26.30;47.08;101521.11;1682925;84;21368;-81
2021/06/23 11:37:10;;;;;;;7.00;2.72;;;;;;;26.33;47.12;101523.27;1680353;84;20230;-81
2021/06/23 11:39:36;;;;;;;7.78;3.12;;;;;;;26.40;47.20;101528.48;1679858;84;21041;-81
2021/06/23 11:42:05;;;;;;;7.97;3.90;;;;;;;26.55;47.38;101529.38;1680411;84;21109;-81
2021/06/23 11:44:34;;;;;;;9.20;3.37;;;;;;;26.65;47.13;101529.54;1680268;84;21831;-81
2021/06/23 11:47:01;;;;;;;8.90;2.77;;;;;;;26.78;47.22;101526.48;1680467;85;21068;-81
2021/06/23 11:49:30;;;;;;;7.62;3.50;;;;;;;27.09;47.36;101533.19;1683985;85;21014;-81
2021/06/23 11:52:03;;;;;;;7.35;4.10;;;;;;;27.26;46.76;101529.50;1679971;84;21168;-81
2021/06/23 11:54:30;;;;;;;8.37;4.30;;;;;;;27.24;46.84;101532.69;1680935;84;21018;-81